Svitzer Viana — CSZG3 — position and weather

sailwx.info

Track history (hours):
 
Tides and Currents Weather Stations Pressure Air Temp Water Temp Dewpoint Dewpoint Depression Visibility Wind Speed Wind Dir Waves Ship Positions

Svitzer Viana

Last reported at 2017-Sep-21 18:02 UTC. Time now 2017-Sep-21 22:59 UTC.
Position N 38°42' W 009°10'.

Length 28 m; draft 3.8 m.

Type: Tug. MMSI: 263602568.

Date/timePositionNaut miles runAvg speedWind from/ knotsBaromVisibWave heightAir tempDewpointWater temp
2017-Sep-21 18:02N 38°42' W 009°10'0 0.0
2017-Sep-21 17:53N 38°42' W 009°10'0 0.0
2017-Sep-21 16:02N 38°42' W 009°10'0 0.0
2017-Sep-21 13:53N 38°42' W 009°10'0 0.0
2017-Sep-21 13:26N 38°42' W 009°10'0 0.0
2017-Sep-21 11:53N 38°42' W 009°10'0 0.0
2017-Sep-21 11:26N 38°42' W 009°10'0 0.0
2017-Sep-21 09:28N 38°42' W 009°10'2 4.2
2017-Sep-21 08:58N 38°40' W 009°09'1 2.5
2017-Sep-21 08:29N 38°41' W 009°08'2 0.9
2017-Sep-21 06:33N 38°42' W 009°10'0 0.0
2017-Sep-21 06:24N 38°42' W 009°10'0 0.0
2017-Sep-21 05:48N 38°42' W 009°10'0 0.0
2017-Sep-21 05:09N 38°42' W 009°10'0 0.0
2017-Sep-21 04:45N 38°42' W 009°10'0 0.0
2017-Sep-21 04:15N 38°42' W 009°10'0 0.0
2017-Sep-21 03:54N 38°42' W 009°10'0 0.0
2017-Sep-21 03:27N 38°42' W 009°10'0 0.0
2017-Sep-21 02:51N 38°42' W 009°10'0 0.0
2017-Sep-21 02:18N 38°42' W 009°10'0 0.0
2017-Sep-21 01:48N 38°42' W 009°10'0 0.0
2017-Sep-21 01:15N 38°42' W 009°10'0 0.0
2017-Sep-21 00:57N 38°42' W 009°10'0 0.0
2017-Sep-21 00:24N 38°42' W 009°10'0 0.0
2017-Sep-20 23:48N 38°42' W 009°10'0 0.0
2017-Sep-20 23:21N 38°42' W 009°10'0 0.0
2017-Sep-20 22:57N 38°42' W 009°10'0 0.0
2017-Sep-20 22:21N 38°42' W 009°10'0 0.0
2017-Sep-20 21:57N 38°42' W 009°10'0 0.0
2017-Sep-20 21:09N 38°42' W 009°10'0 0.0
2017-Sep-20 20:54N 38°42' W 009°10'0 0.0
2017-Sep-20 19:39N 38°42' W 009°10'0 2.6
2017-Sep-20 19:30N 38°42' W 009°10'0 0.5
2017-Sep-20 18:58N 38°42' W 009°10'0 0.8
2017-Sep-20 18:30N 38°42' W 009°10'0 0.2
2017-Sep-20 17:58N 38°42' W 009°10'0 0.0
2017-Sep-20 17:13N 38°42' W 009°10'0 0.0
2017-Sep-20 16:58N 38°42' W 009°10'0 0.0
2017-Sep-20 16:01N 38°42' W 009°10'0 0.0
2017-Sep-20 15:59N 38°42' W 009°10'0 0.0
2017-Sep-20 15:22N 38°42' W 009°10'0 0.4
2017-Sep-20 14:58N 38°42' W 009°09'0 0.1
2017-Sep-20 11:58N 38°42' W 009°10'0 0.0
2017-Sep-20 10:57N 38°42' W 009°10'0 0.0
2017-Sep-20 10:28N 38°42' W 009°10'0 0.0
2017-Sep-20 09:55N 38°42' W 009°10'0 0.0
2017-Sep-20 09:25N 38°42' W 009°10'0 0.0
2017-Sep-20 08:58N 38°42' W 009°10'0 0.0
2017-Sep-20 08:30N 38°42' W 009°10'0 0.0
2017-Sep-20 07:10N 38°42' W 009°10'0 0.0
2017-Sep-20 06:51N 38°42' W 009°10'0 0.0
2017-Sep-20 06:27N 38°42' W 009°10'0 0.0
2017-Sep-20 06:01N 38°42' W 009°10'0 0.0
2017-Sep-20 05:00N 38°42' W 009°10'0 0.0
2017-Sep-20 04:30N 38°42' W 009°10'0 0.0
2017-Sep-20 03:36N 38°42' W 009°10'0 0.0
2017-Sep-20 03:22N 38°42' W 009°10'0 0.0
2017-Sep-20 02:58N 38°42' W 009°10'0 0.0
2017-Sep-20 02:06N 38°42' W 009°10'0 0.0
2017-Sep-20 02:00N 38°42' W 009°10'0 0.0
2017-Sep-20 01:24N 38°42' W 009°10'0 0.0
2017-Sep-20 01:01N 38°42' W 009°10'0 0.0
2017-Sep-20 00:19N 38°42' W 009°10'0 0.0
2017-Sep-19 23:48N 38°42' W 009°10'3 3.0
2017-Sep-19 22:45N 38°44' W 009°06'1 4.5
2017-Sep-19 22:30N 38°43' W 009°07'2 3.1
2017-Sep-19 22:00N 38°42' W 009°08'1 0.8
2017-Sep-19 20:56N 38°42' W 009°10'0 0.1
2017-Sep-19 20:29N 38°42' W 009°09'1 1.7
2017-Sep-19 20:00N 38°42' W 009°10'0 0.6
2017-Sep-19 19:18N 38°42' W 009°11'1 3.7
2017-Sep-19 18:58N 38°42' W 009°09'0 0.0
2017-Sep-19 16:52N 38°42' W 009°10'0 0.0
2017-Sep-19 15:58N 38°42' W 009°10'2 3.4
2017-Sep-19 15:30N 38°41' W 009°08'1 1.1
2017-Sep-19 15:00N 38°41' W 009°08'1 1.8
2017-Sep-19 14:19N 38°42' W 009°10'0 0.1
2017-Sep-19 13:48N 38°42' W 009°10'0 0.0
2017-Sep-19 13:24N 38°42' W 009°10'0 0.0
2017-Sep-19 12:48N 38°42' W 009°10'0 0.0
2017-Sep-19 12:09N 38°42' W 009°10'0 0.0
2017-Sep-19 11:48N 38°42' W 009°10'0 0.0
2017-Sep-19 11:06N 38°42' W 009°10'0 0.0
2017-Sep-19 10:39N 38°42' W 009°10'0 0.0
2017-Sep-19 10:30N 38°42' W 009°10'0 0.0
2017-Sep-19 08:54N 38°42' W 009°10'0 0.0
2017-Sep-19 07:57N 38°42' W 009°10'0 0.0
2017-Sep-19 07:06N 38°42' W 009°10'0 0.0
2017-Sep-19 06:57N 38°42' W 009°10'0 0.0
2017-Sep-19 06:30N 38°42' W 009°10'0 0.0
2017-Sep-19 05:30N 38°42' W 009°10'0 0.0
2017-Sep-19 04:54N 38°42' W 009°10'0 0.0
2017-Sep-19 03:48N 38°42' W 009°10'0 0.0
2017-Sep-19 03:21N 38°42' W 009°10'0 0.0
2017-Sep-19 02:48N 38°42' W 009°10'0 0.0
2017-Sep-19 01:54N 38°42' W 009°10'0 0.0
2017-Sep-18 23:33N 38°42' W 009°10'0 0.0
2017-Sep-18 23:15N 38°42' W 009°10'0 0.0
2017-Sep-18 22:48N 38°42' W 009°10'0 0.0
2017-Sep-18 22:30N 38°42' W 009°10'0 0.0
2017-Sep-18 22:00N 38°42' W 009°10'0 0.0
2017-Sep-18 20:53N 38°42' W 009°10'0 0.0
2017-Sep-18 19:14N 38°42' W 009°10'0 0.0
2017-Sep-18 18:56N 38°42' W 009°10'0 0.0
2017-Sep-18 17:05N 38°42' W 009°10'0 0.0
2017-Sep-18 16:47N 38°42' W 009°10'0 0.0
2017-Sep-18 16:20N 38°42' W 009°10'0 0.0
2017-Sep-18 15:53N 38°42' W 009°10'0 0.0
2017-Sep-18 15:17N 38°42' W 009°10'0 0.0
2017-Sep-18 14:53N 38°42' W 009°10'0 0.0
2017-Sep-18 14:16N 38°42' W 009°10'0 0.3
2017-Sep-18 13:50N 38°42' W 009°10'0 0.1
2017-Sep-18 13:10N 38°42' W 009°10'0 0.3
2017-Sep-18 12:48N 38°42' W 009°10'0 0.0
2017-Sep-18 12:18N 38°42' W 009°10'0 0.0
2017-Sep-18 11:45N 38°42' W 009°10'0 0.0
2017-Sep-18 10:48N 38°42' W 009°10'0 0.0
2017-Sep-18 10:27N 38°42' W 009°10'0 0.0
2017-Sep-18 09:09N 38°42' W 009°10'0 0.0
2017-Sep-18 08:48N 38°42' W 009°10'0 0.0
2017-Sep-18 08:30N 38°42' W 009°10'2 2.2
2017-Sep-18 07:35N 38°43' W 009°07'1 6.8
2017-Sep-18 07:30N 38°42' W 009°08'2 1.0
2017-Sep-18 05:54N 38°42' W 009°10'0 0.0
2017-Sep-18 04:48N 38°42' W 009°10'0 0.0
2017-Sep-18 04:24N 38°42' W 009°10'0 0.0
2017-Sep-18 02:21N 38°42' W 009°10'0 0.0
2017-Sep-18 01:48N 38°42' W 009°10'0 0.0
2017-Sep-18 00:00N 38°42' W 009°10'0 0.0
2017-Sep-17 23:30N 38°42' W 009°10'0 0.0
2017-Sep-17 23:00N 38°42' W 009°10'0 0.0
2017-Sep-17 21:48N 38°42' W 009°10'0 0.0
2017-Sep-17 20:33N 38°42' W 009°10'0 0.0
2017-Sep-17 20:30N 38°42' W 009°10'0 0.0
2017-Sep-17 19:48N 38°42' W 009°10'0 0.0
2017-Sep-17 19:09N 38°42' W 009°10'0 0.0
2017-Sep-17 17:54N 38°42' W 009°10'0 0.0
2017-Sep-17 17:24N 38°42' W 009°10'0 0.0
2017-Sep-17 15:54N 38°42' W 009°10'0 0.1
2017-Sep-17 15:16N 38°42' W 009°10'2 6.3
2017-Sep-17 14:53N 38°43' W 009°07'0 0.5
2017-Sep-17 14:30N 38°43' W 009°07'2 3.8
2017-Sep-17 14:00N 38°42' W 009°09'0 0.7
2017-Sep-17 13:28N 38°42' W 009°09'2 2.1
2017-Sep-17 12:42N 38°41' W 009°11'0 0.7
2017-Sep-17 12:22N 38°41' W 009°11'1 2.3
2017-Sep-17 12:00N 38°41' W 009°12'2 1.4
2017-Sep-17 10:14N 38°42' W 009°10'0 0.0
2017-Sep-17 09:53N 38°42' W 009°10'0 0.0
2017-Sep-17 09:20N 38°42' W 009°10'0 0.0
2017-Sep-17 08:56N 38°42' W 009°10'0 0.0
2017-Sep-17 07:02N 38°42' W 009°10'0 0.0
2017-Sep-17 06:53N 38°42' W 009°10'0 0.0
2017-Sep-17 06:20N 38°42' W 009°10'0 0.0
2017-Sep-17 01:50N 38°42' W 009°10'1 0.1
2017-Sep-16 21:49N 38°42' W 009°09'2 2.4
2017-Sep-16 20:55N 38°43' W 009°06'2 5.4
2017-Sep-16 20:29N 38°42' W 009°09'0 0.1
2017-Sep-16 14:38N 38°42' W 009°10'0 0.0
2017-Sep-16 13:53N 38°42' W 009°10'0 0.0
2017-Sep-16 12:56N 38°42' W 009°10'0 0.0
2017-Sep-16 10:53N 38°42' W 009°10'0 0.0
2017-Sep-16 10:23N 38°42' W 009°10'0 0.0
2017-Sep-16 09:53N 38°42' W 009°10'0 0.2
2017-Sep-16 09:18N 38°42' W 009°09'0 0.2
2017-Sep-16 08:49N 38°42' W 009°10'1 1.4
2017-Sep-16 08:24N 38°42' W 009°10'1 0.5
2017-Sep-16 07:16N 38°42' W 009°10'0 0.0
2017-Sep-16 06:49N 38°42' W 009°10'0 0.0
2017-Sep-16 03:52N 38°42' W 009°10'0 0.0
2017-Sep-15 22:52N 38°42' W 009°10'0 0.0
2017-Sep-15 20:25N 38°42' W 009°10'2 1.5
2017-Sep-15 18:54N 38°43' W 009°07'2 0.4
2017-Sep-15 12:39N 38°42' W 009°10'0 0.1
2017-Sep-15 12:29N 38°42' W 009°10'0 0.3
2017-Sep-15 11:33N 38°42' W 009°10'1 2.1
2017-Sep-15 11:14N 38°42' W 009°10'1 2.3
2017-Sep-15 11:00N 38°42' W 009°10'0 0.6
2017-Sep-15 10:14N 38°42' W 009°10'0 0.3
2017-Sep-15 08:57N 38°42' W 009°09'2 3.4
2017-Sep-15 08:30N 38°43' W 009°07'0 0.4
2017-Sep-15 07:49N 38°43' W 009°07'1 4.5
2017-Sep-15 07:30N 38°42' W 009°09'1 1.3
2017-Sep-15 06:54N 38°42' W 009°10'0 0.0
2017-Sep-15 04:38N 38°42' W 009°10'0 0.0
2017-Sep-15 00:36N 38°42' W 009°10'1 8.8
2017-Sep-15 00:30N 38°42' W 009°09'1 2.7
2017-Sep-15 00:00N 38°42' W 009°07'2 1.8
2017-Sep-14 22:48N 38°42' W 009°10'1 3.1
2017-Sep-14 22:30N 38°42' W 009°09'4 5.8
2017-Sep-14 21:50N 38°41' W 009°04'0 0.6
2017-Sep-14 21:30N 38°41' W 009°04'3 6.2
2017-Sep-14 21:01N 38°41' W 009°08'2 1.4
2017-Sep-14 19:51N 38°42' W 009°10'0 0.0
2017-Sep-14 18:48N 38°42' W 009°10'0 1.6
2017-Sep-14 18:30N 38°42' W 009°09'4 6.7
2017-Sep-14 17:54N 38°40' W 009°04'1 2.7
2017-Sep-14 17:29N 38°40' W 009°06'2 5.1
2017-Sep-14 17:00N 38°41' W 009°09'1 0.6
2017-Sep-14 15:22N 38°42' W 009°10'0 0.0
2017-Sep-14 14:43N 38°42' W 009°10'0 0.0
2017-Sep-14 13:07N 38°42' W 009°10'0 0.0
2017-Sep-14 12:58N 38°42' W 009°10'0 0.0
2017-Sep-14 11:55N 38°42' W 009°10'0 0.0
2017-Sep-14 11:19N 38°42' W 009°10'0 0.0
2017-Sep-14 09:58N 38°42' W 009°10'0 0.0
2017-Sep-14 09:28N 38°42' W 009°10'0 0.0
2017-Sep-14 08:58N 38°42' W 009°10'2 3.5
2017-Sep-14 08:30N 38°42' W 009°08'1 1.0
2017-Sep-14 07:56N 38°43' W 009°07'1 1.5
2017-Sep-14 07:27N 38°42' W 009°07'2 2.8
2017-Sep-14 06:52N 38°42' W 009°10'0 0.0
2017-Sep-14 05:43N 38°42' W 009°10'0 0.0
2017-Sep-14 05:19N 38°42' W 009°10'0 0.0
2017-Sep-14 03:52N 38°42' W 009°10'0 0.0
2017-Sep-14 02:16N 38°42' W 009°10'0 0.0
2017-Sep-14 01:52N 38°42' W 009°10'0 0.0
2017-Sep-13 22:58N 38°42' W 009°10'0 0.0
2017-Sep-13 22:25N 38°42' W 009°10'0 0.6
2017-Sep-13 21:52N 38°42' W 009°10'0 0.4
2017-Sep-13 20:49N 38°42' W 009°10'3 8.0
2017-Sep-13 20:26N 38°44' W 009°06'0 0.4
2017-Sep-13 19:58N 38°44' W 009°06'3 6.0
2017-Sep-13 19:30N 38°42' W 009°09'1 1.1
2017-Sep-13 18:52N 38°42' W 009°10'0 0.0
2017-Sep-13 18:16N 38°42' W 009°10'0 0.0
2017-Sep-13 17:43N 38°42' W 009°10'0 0.0
2017-Sep-13 17:28N 38°42' W 009°10'0 0.0
2017-Sep-13 16:58N 38°42' W 009°10'0 0.0
2017-Sep-13 15:55N 38°42' W 009°10'0 0.0
2017-Sep-13 15:10N 38°42' W 009°10'0 0.0
2017-Sep-13 14:40N 38°42' W 009°10'0 0.0
2017-Sep-13 14:04N 38°42' W 009°10'0 0.0
2017-Sep-13 13:58N 38°42' W 009°10'0 0.3
2017-Sep-13 13:28N 38°42' W 009°09'1 1.5
2017-Sep-13 13:00N 38°42' W 009°10'1 1.0
2017-Sep-13 12:26N 38°42' W 009°10'0 0.0
2017-Sep-13 11:56N 38°42' W 009°10'0 0.0
2017-Sep-13 10:47N 38°42' W 009°10'0 0.0
2017-Sep-13 10:26N 38°42' W 009°10'0 0.0
2017-Sep-13 09:41N 38°42' W 009°10'0 0.0
2017-Sep-13 09:23N 38°42' W 009°10'0 0.3
2017-Sep-13 08:53N 38°42' W 009°09'4 9.7
2017-Sep-13 08:30N 38°41' W 009°14'0 0.7
2017-Sep-13 07:58N 38°41' W 009°14'0 0.5
2017-Sep-13 07:23N 38°41' W 009°14'0 1.2
2017-Sep-13 06:59N 38°41' W 009°14'3 2.7
2017-Sep-13 05:44N 38°42' W 009°10'0 0.0
2017-Sep-13 03:35N 38°42' W 009°10'0 0.0
2017-Sep-13 03:26N 38°42' W 009°10'0 0.0
2017-Sep-13 02:53N 38°42' W 009°10'0 0.0
2017-Sep-13 02:23N 38°42' W 009°10'0 0.0
2017-Sep-13 01:41N 38°42' W 009°10'0 0.0
2017-Sep-12 21:53N 38°42' W 009°10'0 0.0
2017-Sep-12 21:26N 38°42' W 009°10'0 0.0
2017-Sep-12 15:41N 38°42' W 009°10'0 0.1
2017-Sep-12 15:29N 38°42' W 009°10'0 0.8
2017-Sep-12 14:54N 38°42' W 009°10'1 2.7
2017-Sep-12 14:28N 38°41' W 009°11'2 1.1
2017-Sep-12 13:06N 38°42' W 009°10'0 0.0
2017-Sep-12 11:45N 38°42' W 009°10'0 0.0
2017-Sep-12 11:18N 38°42' W 009°10'0 0.0
2017-Sep-12 10:54N 38°42' W 009°10'0 0.0
2017-Sep-12 10:22N 38°42' W 009°10'2 2.3
2017-Sep-12 09:16N 38°43' W 009°07'1 3.6
2017-Sep-12 09:00N 38°42' W 009°07'0 1.0
2017-Sep-12 08:31N 38°42' W 009°07'2 2.9
2017-Sep-12 07:56N 38°42' W 009°10'0 0.0
2017-Sep-12 07:26N 38°42' W 009°10'0 0.0
2017-Sep-12 06:50N 38°42' W 009°10'0 0.0
2017-Sep-12 06:26N 38°42' W 009°10'0 0.1
2017-Sep-12 05:50N 38°42' W 009°10'0 1.0
2017-Sep-12 05:22N 38°42' W 009°10'1 1.5
2017-Sep-12 05:00N 38°42' W 009°11'1 1.7
2017-Sep-12 04:28N 38°42' W 009°09'2 4.6
2017-Sep-12 04:00N 38°43' W 009°07'1 1.8
2017-Sep-12 03:27N 38°44' W 009°06'3 5.7
2017-Sep-12 03:00N 38°42' W 009°09'1 1.0
2017-Sep-12 02:24N 38°42' W 009°10'0 0.0
2017-Sep-12 00:48N 38°42' W 009°10'0 0.0
2017-Sep-12 00:06N 38°42' W 009°10'0 0.0
2017-Sep-11 23:54N 38°42' W 009°10'1 1.4
2017-Sep-11 23:30N 38°42' W 009°09'3 5.5
2017-Sep-11 22:59N 38°44' W 009°06'2 4.0
2017-Sep-11 22:25N 38°42' W 009°08'1 3.0
2017-Sep-11 22:00N 38°42' W 009°10'0 0.0
2017-Sep-11 19:54N 38°42' W 009°10'  
Track history (hours):
 
Tides and Currents Weather Stations Pressure Air Temp Water Temp Dewpoint Dewpoint Depression Visibility Wind Speed Wind Dir Waves Ship Positions

Svitzer Viana

Last reported at 2017-Sep-21 18:02 UTC. Time now 2017-Sep-21 22:59 UTC.
Position N 38°42' W 009°10'.

Length 28 m; draft 3.8 m.

Type: Tug. MMSI: 263602568.

Date/timePositionNaut miles runAvg speedWind from/ knotsBaromVisibWave heightAir tempDewpointWater temp
2017-Sep-21 18:02N 38°42' W 009°10'0 0.0
2017-Sep-21 17:53N 38°42' W 009°10'0 0.0
2017-Sep-21 16:02N 38°42' W 009°10'0 0.0
2017-Sep-21 13:53N 38°42' W 009°10'0 0.0
2017-Sep-21 13:26N 38°42' W 009°10'0 0.0
2017-Sep-21 11:53N 38°42' W 009°10'0 0.0
2017-Sep-21 11:26N 38°42' W 009°10'0 0.0
2017-Sep-21 09:28N 38°42' W 009°10'2 4.2
2017-Sep-21 08:58N 38°40' W 009°09'1 2.5
2017-Sep-21 08:29N 38°41' W 009°08'2 0.9
2017-Sep-21 06:33N 38°42' W 009°10'0 0.0
2017-Sep-21 06:24N 38°42' W 009°10'0 0.0
2017-Sep-21 05:48N 38°42' W 009°10'0 0.0
2017-Sep-21 05:09N 38°42' W 009°10'0 0.0
2017-Sep-21 04:45N 38°42' W 009°10'0 0.0
2017-Sep-21 04:15N 38°42' W 009°10'0 0.0
2017-Sep-21 03:54N 38°42' W 009°10'0 0.0
2017-Sep-21 03:27N 38°42' W 009°10'0 0.0
2017-Sep-21 02:51N 38°42' W 009°10'0 0.0
2017-Sep-21 02:18N 38°42' W 009°10'0 0.0
2017-Sep-21 01:48N 38°42' W 009°10'0 0.0
2017-Sep-21 01:15N 38°42' W 009°10'0 0.0
2017-Sep-21 00:57N 38°42' W 009°10'0 0.0
2017-Sep-21 00:24N 38°42' W 009°10'0 0.0
2017-Sep-20 23:48N 38°42' W 009°10'0 0.0
2017-Sep-20 23:21N 38°42' W 009°10'0 0.0
2017-Sep-20 22:57N 38°42' W 009°10'0 0.0
2017-Sep-20 22:21N 38°42' W 009°10'0 0.0
2017-Sep-20 21:57N 38°42' W 009°10'0 0.0
2017-Sep-20 21:09N 38°42' W 009°10'0 0.0
2017-Sep-20 20:54N 38°42' W 009°10'0 0.0
2017-Sep-20 19:39N 38°42' W 009°10'0 2.6
2017-Sep-20 19:30N 38°42' W 009°10'0 0.5
2017-Sep-20 18:58N 38°42' W 009°10'0 0.8
2017-Sep-20 18:30N 38°42' W 009°10'0 0.2
2017-Sep-20 17:58N 38°42' W 009°10'0 0.0
2017-Sep-20 17:13N 38°42' W 009°10'0 0.0
2017-Sep-20 16:58N 38°42' W 009°10'0 0.0
2017-Sep-20 16:01N 38°42' W 009°10'0 0.0
2017-Sep-20 15:59N 38°42' W 009°10'0 0.0
2017-Sep-20 15:22N 38°42' W 009°10'0 0.4
2017-Sep-20 14:58N 38°42' W 009°09'0 0.1
2017-Sep-20 11:58N 38°42' W 009°10'0 0.0
2017-Sep-20 10:57N 38°42' W 009°10'0 0.0
2017-Sep-20 10:28N 38°42' W 009°10'0 0.0
2017-Sep-20 09:55N 38°42' W 009°10'0 0.0
2017-Sep-20 09:25N 38°42' W 009°10'0 0.0
2017-Sep-20 08:58N 38°42' W 009°10'0 0.0
2017-Sep-20 08:30N 38°42' W 009°10'0 0.0
2017-Sep-20 07:10N 38°42' W 009°10'0 0.0
2017-Sep-20 06:51N 38°42' W 009°10'0 0.0
2017-Sep-20 06:27N 38°42' W 009°10'0 0.0
2017-Sep-20 06:01N 38°42' W 009°10'0 0.0
2017-Sep-20 05:00N 38°42' W 009°10'0 0.0
2017-Sep-20 04:30N 38°42' W 009°10'0 0.0
2017-Sep-20 03:36N 38°42' W 009°10'0 0.0
2017-Sep-20 03:22N 38°42' W 009°10'0 0.0
2017-Sep-20 02:58N 38°42' W 009°10'0 0.0
2017-Sep-20 02:06N 38°42' W 009°10'0 0.0
2017-Sep-20 02:00N 38°42' W 009°10'0 0.0
2017-Sep-20 01:24N 38°42' W 009°10'0 0.0
2017-Sep-20 01:01N 38°42' W 009°10'0 0.0
2017-Sep-20 00:19N 38°42' W 009°10'0 0.0
2017-Sep-19 23:48N 38°42' W 009°10'3 3.0
2017-Sep-19 22:45N 38°44' W 009°06'1 4.5
2017-Sep-19 22:30N 38°43' W 009°07'2 3.1
2017-Sep-19 22:00N 38°42' W 009°08'1 0.8
2017-Sep-19 20:56N 38°42' W 009°10'0 0.1
2017-Sep-19 20:29N 38°42' W 009°09'1 1.7
2017-Sep-19 20:00N 38°42' W 009°10'0 0.6
2017-Sep-19 19:18N 38°42' W 009°11'1 3.7
2017-Sep-19 18:58N 38°42' W 009°09'0 0.0
2017-Sep-19 16:52N 38°42' W 009°10'0 0.0
2017-Sep-19 15:58N 38°42' W 009°10'2 3.4
2017-Sep-19 15:30N 38°41' W 009°08'1 1.1
2017-Sep-19 15:00N 38°41' W 009°08'1 1.8
2017-Sep-19 14:19N 38°42' W 009°10'0 0.1
2017-Sep-19 13:48N 38°42' W 009°10'0 0.0
2017-Sep-19 13:24N 38°42' W 009°10'0 0.0
2017-Sep-19 12:48N 38°42' W 009°10'0 0.0
2017-Sep-19 12:09N 38°42' W 009°10'0 0.0
2017-Sep-19 11:48N 38°42' W 009°10'0 0.0
2017-Sep-19 11:06N 38°42' W 009°10'0 0.0
2017-Sep-19 10:39N 38°42' W 009°10'0 0.0
2017-Sep-19 10:30N 38°42' W 009°10'0 0.0
2017-Sep-19 08:54N 38°42' W 009°10'0 0.0
2017-Sep-19 07:57N 38°42' W 009°10'0 0.0
2017-Sep-19 07:06N 38°42' W 009°10'0 0.0
2017-Sep-19 06:57N 38°42' W 009°10'0 0.0
2017-Sep-19 06:30N 38°42' W 009°10'0 0.0
2017-Sep-19 05:30N 38°42' W 009°10'0 0.0
2017-Sep-19 04:54N 38°42' W 009°10'0 0.0
2017-Sep-19 03:48N 38°42' W 009°10'0 0.0
2017-Sep-19 03:21N 38°42' W 009°10'0 0.0
2017-Sep-19 02:48N 38°42' W 009°10'0 0.0
2017-Sep-19 01:54N 38°42' W 009°10'0 0.0
2017-Sep-18 23:33N 38°42' W 009°10'0 0.0
2017-Sep-18 23:15N 38°42' W 009°10'0 0.0
2017-Sep-18 22:48N 38°42' W 009°10'0 0.0
2017-Sep-18 22:30N 38°42' W 009°10'0 0.0
2017-Sep-18 22:00N 38°42' W 009°10'0 0.0
2017-Sep-18 20:53N 38°42' W 009°10'0 0.0
2017-Sep-18 19:14N 38°42' W 009°10'0 0.0
2017-Sep-18 18:56N 38°42' W 009°10'0 0.0
2017-Sep-18 17:05N 38°42' W 009°10'0 0.0
2017-Sep-18 16:47N 38°42' W 009°10'0 0.0
2017-Sep-18 16:20N 38°42' W 009°10'0 0.0
2017-Sep-18 15:53N 38°42' W 009°10'0 0.0
2017-Sep-18 15:17N 38°42' W 009°10'0 0.0
2017-Sep-18 14:53N 38°42' W 009°10'0 0.0
2017-Sep-18 14:16N 38°42' W 009°10'0 0.3
2017-Sep-18 13:50N 38°42' W 009°10'0 0.1
2017-Sep-18 13:10N 38°42' W 009°10'0 0.3
2017-Sep-18 12:48N 38°42' W 009°10'0 0.0
2017-Sep-18 12:18N 38°42' W 009°10'0 0.0
2017-Sep-18 11:45N 38°42' W 009°10'0 0.0
2017-Sep-18 10:48N 38°42' W 009°10'0 0.0
2017-Sep-18 10:27N 38°42' W 009°10'0 0.0
2017-Sep-18 09:09N 38°42' W 009°10'0 0.0
2017-Sep-18 08:48N 38°42' W 009°10'0 0.0
2017-Sep-18 08:30N 38°42' W 009°10'2 2.2
2017-Sep-18 07:35N 38°43' W 009°07'1 6.8
2017-Sep-18 07:30N 38°42' W 009°08'2 1.0
2017-Sep-18 05:54N 38°42' W 009°10'0 0.0
2017-Sep-18 04:48N 38°42' W 009°10'0 0.0
2017-Sep-18 04:24N 38°42' W 009°10'0 0.0
2017-Sep-18 02:21N 38°42' W 009°10'0 0.0
2017-Sep-18 01:48N 38°42' W 009°10'0 0.0
2017-Sep-18 00:00N 38°42' W 009°10'0 0.0
2017-Sep-17 23:30N 38°42' W 009°10'0 0.0
2017-Sep-17 23:00N 38°42' W 009°10'0 0.0
2017-Sep-17 21:48N 38°42' W 009°10'0 0.0
2017-Sep-17 20:33N 38°42' W 009°10'0 0.0
2017-Sep-17 20:30N 38°42' W 009°10'0 0.0
2017-Sep-17 19:48N 38°42' W 009°10'0 0.0
2017-Sep-17 19:09N 38°42' W 009°10'0 0.0
2017-Sep-17 17:54N 38°42' W 009°10'0 0.0
2017-Sep-17 17:24N 38°42' W 009°10'0 0.0
2017-Sep-17 15:54N 38°42' W 009°10'0 0.1
2017-Sep-17 15:16N 38°42' W 009°10'2 6.3
2017-Sep-17 14:53N 38°43' W 009°07'0 0.5
2017-Sep-17 14:30N 38°43' W 009°07'2 3.8
2017-Sep-17 14:00N 38°42' W 009°09'0 0.7
2017-Sep-17 13:28N 38°42' W 009°09'2 2.1
2017-Sep-17 12:42N 38°41' W 009°11'0 0.7
2017-Sep-17 12:22N 38°41' W 009°11'1 2.3
2017-Sep-17 12:00N 38°41' W 009°12'2 1.4
2017-Sep-17 10:14N 38°42' W 009°10'0 0.0
2017-Sep-17 09:53N 38°42' W 009°10'0 0.0
2017-Sep-17 09:20N 38°42' W 009°10'0 0.0
2017-Sep-17 08:56N 38°42' W 009°10'0 0.0
2017-Sep-17 07:02N 38°42' W 009°10'0 0.0
2017-Sep-17 06:53N 38°42' W 009°10'0 0.0
2017-Sep-17 06:20N 38°42' W 009°10'0 0.0
2017-Sep-17 01:50N 38°42' W 009°10'1 0.1
2017-Sep-16 21:49N 38°42' W 009°09'2 2.4
2017-Sep-16 20:55N 38°43' W 009°06'2 5.4
2017-Sep-16 20:29N 38°42' W 009°09'0 0.1
2017-Sep-16 14:38N 38°42' W 009°10'0 0.0
2017-Sep-16 13:53N 38°42' W 009°10'0 0.0
2017-Sep-16 12:56N 38°42' W 009°10'0 0.0
2017-Sep-16 10:53N 38°42' W 009°10'0 0.0
2017-Sep-16 10:23N 38°42' W 009°10'0 0.0
2017-Sep-16 09:53N 38°42' W 009°10'0 0.2
2017-Sep-16 09:18N 38°42' W 009°09'0 0.2
2017-Sep-16 08:49N 38°42' W 009°10'1 1.4
2017-Sep-16 08:24N 38°42' W 009°10'1 0.5
2017-Sep-16 07:16N 38°42' W 009°10'0 0.0
2017-Sep-16 06:49N 38°42' W 009°10'0 0.0
2017-Sep-16 03:52N 38°42' W 009°10'0 0.0
2017-Sep-15 22:52N 38°42' W 009°10'0 0.0
2017-Sep-15 20:25N 38°42' W 009°10'2 1.5
2017-Sep-15 18:54N 38°43' W 009°07'2 0.4
2017-Sep-15 12:39N 38°42' W 009°10'0 0.1
2017-Sep-15 12:29N 38°42' W 009°10'0 0.3
2017-Sep-15 11:33N 38°42' W 009°10'1 2.1
2017-Sep-15 11:14N 38°42' W 009°10'1 2.3
2017-Sep-15 11:00N 38°42' W 009°10'0 0.6
2017-Sep-15 10:14N 38°42' W 009°10'0 0.3
2017-Sep-15 08:57N 38°42' W 009°09'2 3.4
2017-Sep-15 08:30N 38°43' W 009°07'0 0.4
2017-Sep-15 07:49N 38°43' W 009°07'1 4.5
2017-Sep-15 07:30N 38°42' W 009°09'1 1.3
2017-Sep-15 06:54N 38°42' W 009°10'0 0.0
2017-Sep-15 04:38N 38°42' W 009°10'0 0.0
2017-Sep-15 00:36N 38°42' W 009°10'1 8.8
2017-Sep-15 00:30N 38°42' W 009°09'1 2.7
2017-Sep-15 00:00N 38°42' W 009°07'2 1.8
2017-Sep-14 22:48N 38°42' W 009°10'1 3.1
2017-Sep-14 22:30N 38°42' W 009°09'4 5.8
2017-Sep-14 21:50N 38°41' W 009°04'0 0.6
2017-Sep-14 21:30N 38°41' W 009°04'3 6.2
2017-Sep-14 21:01N 38°41' W 009°08'2 1.4
2017-Sep-14 19:51N 38°42' W 009°10'0 0.0
2017-Sep-14 18:48N 38°42' W 009°10'0 1.6
2017-Sep-14 18:30N 38°42' W 009°09'4 6.7
2017-Sep-14 17:54N 38°40' W 009°04'1 2.7
2017-Sep-14 17:29N 38°40' W 009°06'2 5.1
2017-Sep-14 17:00N 38°41' W 009°09'1 0.6
2017-Sep-14 15:22N 38°42' W 009°10'0 0.0
2017-Sep-14 14:43N 38°42' W 009°10'0 0.0
2017-Sep-14 13:07N 38°42' W 009°10'0 0.0
2017-Sep-14 12:58N 38°42' W 009°10'0 0.0
2017-Sep-14 11:55N 38°42' W 009°10'0 0.0
2017-Sep-14 11:19N 38°42' W 009°10'0 0.0
2017-Sep-14 09:58N 38°42' W 009°10'0 0.0
2017-Sep-14 09:28N 38°42' W 009°10'0 0.0
2017-Sep-14 08:58N 38°42' W 009°10'2 3.5
2017-Sep-14 08:30N 38°42' W 009°08'1 1.0
2017-Sep-14 07:56N 38°43' W 009°07'1 1.5
2017-Sep-14 07:27N 38°42' W 009°07'2 2.8
2017-Sep-14 06:52N 38°42' W 009°10'0 0.0
2017-Sep-14 05:43N 38°42' W 009°10'0 0.0
2017-Sep-14 05:19N 38°42' W 009°10'0 0.0
2017-Sep-14 03:52N 38°42' W 009°10'0 0.0
2017-Sep-14 02:16N 38°42' W 009°10'0 0.0
2017-Sep-14 01:52N 38°42' W 009°10'0 0.0
2017-Sep-13 22:58N 38°42' W 009°10'0 0.0
2017-Sep-13 22:25N 38°42' W 009°10'0 0.6
2017-Sep-13 21:52N 38°42' W 009°10'0 0.4
2017-Sep-13 20:49N 38°42' W 009°10'3 8.0
2017-Sep-13 20:26N 38°44' W 009°06'0 0.4
2017-Sep-13 19:58N 38°44' W 009°06'3 6.0
2017-Sep-13 19:30N 38°42' W 009°09'1 1.1
2017-Sep-13 18:52N 38°42' W 009°10'0 0.0
2017-Sep-13 18:16N 38°42' W 009°10'0 0.0
2017-Sep-13 17:43N 38°42' W 009°10'0 0.0
2017-Sep-13 17:28N 38°42' W 009°10'0 0.0
2017-Sep-13 16:58N 38°42' W 009°10'0 0.0
2017-Sep-13 15:55N 38°42' W 009°10'0 0.0
2017-Sep-13 15:10N 38°42' W 009°10'0 0.0
2017-Sep-13 14:40N 38°42' W 009°10'0 0.0
2017-Sep-13 14:04N 38°42' W 009°10'0 0.0
2017-Sep-13 13:58N 38°42' W 009°10'0 0.3
2017-Sep-13 13:28N 38°42' W 009°09'1 1.5
2017-Sep-13 13:00N 38°42' W 009°10'1 1.0
2017-Sep-13 12:26N 38°42' W 009°10'0 0.0
2017-Sep-13 11:56N 38°42' W 009°10'0 0.0
2017-Sep-13 10:47N 38°42' W 009°10'0 0.0
2017-Sep-13 10:26N 38°42' W 009°10'0 0.0
2017-Sep-13 09:41N 38°42' W 009°10'0 0.0
2017-Sep-13 09:23N 38°42' W 009°10'0 0.3
2017-Sep-13 08:53N 38°42' W 009°09'4 9.7
2017-Sep-13 08:30N 38°41' W 009°14'0 0.7
2017-Sep-13 07:58N 38°41' W 009°14'0 0.5
2017-Sep-13 07:23N 38°41' W 009°14'0 1.2
2017-Sep-13 06:59N 38°41' W 009°14'3 2.7
2017-Sep-13 05:44N 38°42' W 009°10'0 0.0
2017-Sep-13 03:35N 38°42' W 009°10'0 0.0
2017-Sep-13 03:26N 38°42' W 009°10'0 0.0
2017-Sep-13 02:53N 38°42' W 009°10'0 0.0
2017-Sep-13 02:23N 38°42' W 009°10'0 0.0
2017-Sep-13 01:41N 38°42' W 009°10'0 0.0
2017-Sep-12 21:53N 38°42' W 009°10'0 0.0
2017-Sep-12 21:26N 38°42' W 009°10'0 0.0
2017-Sep-12 15:41N 38°42' W 009°10'0 0.1
2017-Sep-12 15:29N 38°42' W 009°10'0 0.8
2017-Sep-12 14:54N 38°42' W 009°10'1 2.7
2017-Sep-12 14:28N 38°41' W 009°11'2 1.1
2017-Sep-12 13:06N 38°42' W 009°10'0 0.0
2017-Sep-12 11:45N 38°42' W 009°10'0 0.0
2017-Sep-12 11:18N 38°42' W 009°10'0 0.0
2017-Sep-12 10:54N 38°42' W 009°10'0 0.0
2017-Sep-12 10:22N 38°42' W 009°10'2 2.3
2017-Sep-12 09:16N 38°43' W 009°07'1 3.6
2017-Sep-12 09:00N 38°42' W 009°07'0 1.0
2017-Sep-12 08:31N 38°42' W 009°07'2 2.9
2017-Sep-12 07:56N 38°42' W 009°10'0 0.0
2017-Sep-12 07:26N 38°42' W 009°10'0 0.0
2017-Sep-12 06:50N 38°42' W 009°10'0 0.0
2017-Sep-12 06:26N 38°42' W 009°10'0 0.1
2017-Sep-12 05:50N 38°42' W 009°10'0 1.0
2017-Sep-12 05:22N 38°42' W 009°10'1 1.5
2017-Sep-12 05:00N 38°42' W 009°11'1 1.7
2017-Sep-12 04:28N 38°42' W 009°09'2 4.6
2017-Sep-12 04:00N 38°43' W 009°07'1 1.8
2017-Sep-12 03:27N 38°44' W 009°06'3 5.7
2017-Sep-12 03:00N 38°42' W 009°09'1 1.0
2017-Sep-12 02:24N 38°42' W 009°10'0 0.0
2017-Sep-12 00:48N 38°42' W 009°10'0 0.0
2017-Sep-12 00:06N 38°42' W 009°10'0 0.0
2017-Sep-11 23:54N 38°42' W 009°10'1 1.4
2017-Sep-11 23:30N 38°42' W 009°09'3 5.5
2017-Sep-11 22:59N 38°44' W 009°06'2 4.0
2017-Sep-11 22:25N 38°42' W 009°08'1 3.0
2017-Sep-11 22:00N 38°42' W 009°10'0 0.0
2017-Sep-11 19:54N 38°42' W 009°10'  

Dump ship's entire track history